createdAt,value
2023-02-03T00:00:06.637Z,9.07
2023-02-03T00:02:33.036Z,9.13
2023-02-03T00:04:59.403Z,9.12
2023-02-03T00:07:25.891Z,8.98
2023-02-03T00:09:52.339Z,8.99
2023-02-03T00:12:18.782Z,9.17
2023-02-03T00:14:45.211Z,9.02
2023-02-03T00:17:11.699Z,9.05
2023-02-03T00:19:38.131Z,9.08
2023-02-03T00:22:04.514Z,9.07
2023-02-03T00:24:30.904Z,9.14
2023-02-03T00:26:57.325Z,9.09
2023-02-03T00:29:25.906Z,9.04
2023-02-03T00:31:53.727Z,9.11
2023-02-03T00:34:20.515Z,8.97
2023-02-03T00:36:48.229Z,9.00
2023-02-03T00:39:15.688Z,9.05
2023-02-03T00:41:42.430Z,8.95
2023-02-03T00:44:08.866Z,9.17
2023-02-03T00:46:38.135Z,9.10
2023-02-03T00:49:04.709Z,9.28
2023-02-03T00:51:31.775Z,9.12
2023-02-03T00:53:58.115Z,9.12
2023-02-03T00:56:24.671Z,9.12
2023-02-03T00:58:51.010Z,9.21
2023-02-03T01:01:17.862Z,9.40
2023-02-03T01:03:44.438Z,9.29
2023-02-03T01:06:14.202Z,9.40
2023-02-03T01:08:40.714Z,9.22
2023-02-03T01:11:19.071Z,9.24
2023-02-03T01:13:45.797Z,9.24
2023-02-03T01:16:15.407Z,9.38
2023-02-03T01:18:42.245Z,9.24
2023-02-03T01:21:17.739Z,9.37
2023-02-03T01:23:44.216Z,9.29
2023-02-03T01:26:14.283Z,9.21
2023-02-03T01:28:41.071Z,9.29
2023-02-03T01:31:16.857Z,9.33
2023-02-03T01:33:46.251Z,9.24
2023-02-03T01:36:13.559Z,9.26
2023-02-03T01:38:39.931Z,9.22
2023-02-03T01:41:08.410Z,9.23
2023-02-03T01:43:40.553Z,9.24
2023-02-03T01:46:28.495Z,9.14
2023-02-03T01:49:01.879Z,9.33
2023-02-03T01:51:28.303Z,9.12
2023-02-03T01:53:55.843Z,9.32
2023-02-03T01:56:23.663Z,9.20
2023-02-03T01:58:50.973Z,9.26
2023-02-03T02:01:19.630Z,9.27
2023-02-03T02:03:52.358Z,9.30
2023-02-03T02:06:18.800Z,9.19
2023-02-03T02:08:50.517Z,9.35
2023-02-03T02:11:18.456Z,9.16
2023-02-03T02:13:45.899Z,9.26
2023-02-03T02:16:22.386Z,9.22
2023-02-03T02:19:02.142Z,9.36
2023-02-03T02:21:37.540Z,9.26
2023-02-03T02:24:28.910Z,9.35
2023-02-03T02:27:00.151Z,9.40
2023-02-03T02:30:05.234Z,9.50
2023-02-03T02:32:36.821Z,9.22
2023-02-03T02:35:03.262Z,9.39
2023-02-03T02:38:04.071Z,9.49
2023-02-03T02:41:00.028Z,9.28
2023-02-03T02:43:39.424Z,9.32
2023-02-03T02:46:14.642Z,9.33
2023-02-03T02:48:45.918Z,9.36
2023-02-03T02:51:15.398Z,9.36
2023-02-03T02:53:49.275Z,9.20
2023-02-03T02:56:18.727Z,9.29
2023-02-03T02:58:49.326Z,9.37
2023-02-03T03:01:16.461Z,9.46
2023-02-03T03:03:45.086Z,9.26
2023-02-03T03:06:37.804Z,9.24
2023-02-03T03:09:26.910Z,9.31
2023-02-03T03:11:59.977Z,9.12
2023-02-03T03:14:31.087Z,9.11
2023-02-03T03:17:02.764Z,9.23
2023-02-03T03:19:35.173Z,9.32
2023-02-03T03:22:05.715Z,9.35
2023-02-03T03:24:37.914Z,9.27
2023-02-03T03:27:22.290Z,9.30
2023-02-03T03:29:54.705Z,9.44
2023-02-03T03:32:21.460Z,9.42
2023-02-03T03:34:48.650Z,9.47
2023-02-03T03:37:19.805Z,9.40
2023-02-03T03:39:56.050Z,9.26
2023-02-03T03:42:46.244Z,9.25
2023-02-03T03:45:28.248Z,9.25
2023-02-03T03:48:12.236Z,9.20
2023-02-03T03:50:45.147Z,9.11
2023-02-03T03:53:13.442Z,9.22
2023-02-03T03:55:41.026Z,9.26
2023-02-03T03:58:12.391Z,9.45
2023-02-03T04:00:41.218Z,9.33
2023-02-03T04:03:21.894Z,9.35
2023-02-03T04:05:48.612Z,9.34
2023-02-03T04:08:15.074Z,9.36
2023-02-03T04:10:43.013Z,9.29
2023-02-03T04:13:10.895Z,9.23
2023-02-03T04:15:37.689Z,9.30
2023-02-03T04:18:04.614Z,9.24
2023-02-03T04:20:32.615Z,9.18
2023-02-03T04:22:59.674Z,9.27
2023-02-03T04:25:26.382Z,9.31
2023-02-03T04:27:52.773Z,9.22
2023-02-03T04:30:19.124Z,9.25
2023-02-03T04:32:46.376Z,9.17
2023-02-03T04:35:13.427Z,9.12
2023-02-03T04:37:39.917Z,9.00
2023-02-03T04:40:07.028Z,9.11
2023-02-03T04:42:33.508Z,9.22
2023-02-03T04:44:59.897Z,9.15
2023-02-03T04:47:26.299Z,9.15
2023-02-03T04:49:52.758Z,9.24
2023-02-03T04:52:19.199Z,9.19
2023-02-03T04:54:45.686Z,9.20
2023-02-03T04:57:12.152Z,9.10
2023-02-03T04:59:38.610Z,9.09
2023-02-03T05:02:05.566Z,9.26
2023-02-03T05:04:32.264Z,9.25
2023-02-03T05:06:58.726Z,9.19
2023-02-03T05:09:25.725Z,9.46
2023-02-03T05:11:52.542Z,9.39
2023-02-03T05:14:19.065Z,9.16
2023-02-03T05:16:46.469Z,9.16
2023-02-03T05:19:13.228Z,9.27
2023-02-03T05:21:39.703Z,9.34
2023-02-03T05:24:07.800Z,9.21
2023-02-03T05:26:35.545Z,9.14
2023-02-03T05:29:02.507Z,9.36
2023-02-03T05:31:29.065Z,9.37
2023-02-03T05:33:55.540Z,9.22
2023-02-03T05:36:21.966Z,9.29
2023-02-03T05:38:48.400Z,9.32
2023-02-03T05:41:33.574Z,9.46
2023-02-03T05:44:00.280Z,9.48
2023-02-03T05:46:26.695Z,9.46
2023-02-03T05:48:53.097Z,9.37
2023-02-03T05:51:19.515Z,9.37
2023-02-03T05:53:45.987Z,9.42
2023-02-03T05:56:12.419Z,9.31
2023-02-03T05:58:38.782Z,9.33
2023-02-03T06:01:05.367Z,9.11
2023-02-03T06:03:31.842Z,9.27
2023-02-03T06:05:58.905Z,9.36
2023-02-03T06:08:28.609Z,9.34
2023-02-03T06:10:59.868Z,9.42
2023-02-03T06:13:26.957Z,9.49
2023-02-03T06:15:53.450Z,9.38
2023-02-03T06:18:19.985Z,9.31
2023-02-03T06:20:46.610Z,9.20
2023-02-03T06:23:13.335Z,9.30
2023-02-03T06:25:39.755Z,9.30
2023-02-03T06:28:06.245Z,9.40
2023-02-03T06:30:32.677Z,9.40
2023-02-03T06:32:59.117Z,9.36
2023-02-03T06:35:25.639Z,9.43
2023-02-03T06:37:52.852Z,9.37
2023-02-03T06:40:19.279Z,9.52
2023-02-03T06:42:47.196Z,9.45
2023-02-03T06:45:14.447Z,9.55
2023-02-03T06:47:42.275Z,9.46
2023-02-03T06:50:10.759Z,9.57
2023-02-03T06:52:37.196Z,9.60
2023-02-03T06:55:05.346Z,9.70
2023-02-03T06:57:32.604Z,9.46
2023-02-03T06:59:59.394Z,9.48
2023-02-03T07:02:25.964Z,9.58
2023-02-03T07:04:52.313Z,9.43
2023-02-03T07:07:18.664Z,9.55
2023-02-03T07:09:45.121Z,9.64
2023-02-03T07:12:11.666Z,9.48
2023-02-03T07:14:39.388Z,9.52
2023-02-03T07:17:06.987Z,9.65
2023-02-03T07:19:33.549Z,9.59
2023-02-03T07:22:00.176Z,9.69
2023-02-03T07:24:26.647Z,9.49
2023-02-03T07:26:53.624Z,9.46
2023-02-03T07:29:20.028Z,9.56
2023-02-03T07:31:46.504Z,9.69
2023-02-03T07:34:12.958Z,9.54
2023-02-03T07:36:39.336Z,9.54
2023-02-03T07:39:05.742Z,9.53
2023-02-03T07:41:32.276Z,9.64
2023-02-03T07:43:58.660Z,9.70
2023-02-03T07:46:25.201Z,9.70
2023-02-03T07:48:51.753Z,9.68
2023-02-03T07:51:18.145Z,9.69
2023-02-03T07:53:45.314Z,9.62
2023-02-03T07:56:12.212Z,9.77
2023-02-03T07:58:38.865Z,9.78
2023-02-03T08:01:16.640Z,9.85
2023-02-03T08:03:43.101Z,9.82
2023-02-03T08:06:10.117Z,9.71
2023-02-03T08:08:36.713Z,9.75
2023-02-03T08:11:03.395Z,9.77
2023-02-03T08:13:29.771Z,9.78
2023-02-03T08:15:56.229Z,9.81
2023-02-03T08:18:22.738Z,9.79
2023-02-03T08:20:49.461Z,9.76
2023-02-03T08:23:16.416Z,9.79
2023-02-03T08:25:42.990Z,9.72
2023-02-03T08:28:09.550Z,9.78
2023-02-03T08:30:36.371Z,9.94
2023-02-03T08:33:02.800Z,9.88
2023-02-03T08:35:29.254Z,9.91
2023-02-03T08:37:55.755Z,10.04
2023-02-03T08:40:22.272Z,10.07
2023-02-03T08:42:48.623Z,10.00
2023-02-03T08:45:15.117Z,10.02
2023-02-03T08:47:41.553Z,10.10
2023-02-03T08:50:09.193Z,9.98
2023-02-03T08:52:35.888Z,10.18
2023-02-03T08:55:02.471Z,10.12
2023-02-03T08:57:33.689Z,10.30
2023-02-03T09:00:00.440Z,10.25
2023-02-03T09:02:26.887Z,10.10
2023-02-03T09:04:53.359Z,10.15
2023-02-03T09:07:19.820Z,10.11
2023-02-03T09:09:46.247Z,10.27
2023-02-03T09:12:13.041Z,10.26
2023-02-03T09:14:39.590Z,10.28
2023-02-03T09:17:08.216Z,10.22
2023-02-03T09:19:36.548Z,10.38
2023-02-03T09:22:03.728Z,10.43
2023-02-03T09:24:30.613Z,10.49
2023-02-03T09:26:57.191Z,10.44
2023-02-03T09:29:23.578Z,10.63
2023-02-03T09:31:52.990Z,10.39
2023-02-03T09:34:20.692Z,10.37
2023-02-03T09:36:47.541Z,10.51
2023-02-03T09:39:14.059Z,10.55
2023-02-03T09:42:10.235Z,10.61
2023-02-03T09:44:50.371Z,10.55
2023-02-03T09:47:25.223Z,10.52
2023-02-03T09:49:55.735Z,10.48
2023-02-03T09:52:33.988Z,10.48
2023-02-03T09:55:00.284Z,10.52
2023-02-03T09:57:29.907Z,10.60
2023-02-03T09:59:59.452Z,10.57
2023-02-03T10:02:47.224Z,10.62
2023-02-03T10:05:53.295Z,10.73
2023-02-03T10:08:41.272Z,10.73
2023-02-03T10:11:40.355Z,10.77
2023-02-03T10:14:27.462Z,10.58
2023-02-03T10:17:12.001Z,10.77
2023-02-03T10:19:42.275Z,10.72
2023-02-03T10:22:14.754Z,10.57
2023-02-03T10:24:50.288Z,10.77
2023-02-03T10:27:20.624Z,10.65
2023-02-03T10:29:54.899Z,10.63
2023-02-03T10:32:21.351Z,10.71
2023-02-03T10:34:48.680Z,10.73
2023-02-03T10:37:39.300Z,10.72
2023-02-03T10:40:05.944Z,10.81
2023-02-03T10:42:53.242Z,10.86
2023-02-03T10:45:20.827Z,10.88
2023-02-03T10:47:57.783Z,10.80
2023-02-03T10:50:31.650Z,10.75
2023-02-03T10:53:32.142Z,10.76
2023-02-03T10:56:13.902Z,10.77
2023-02-03T10:58:47.587Z,10.88
2023-02-03T11:01:16.784Z,10.78
2023-02-03T11:03:53.768Z,10.80
2023-02-03T11:06:20.230Z,10.77
2023-02-03T11:08:49.324Z,10.79
2023-02-03T11:11:32.434Z,10.70
2023-02-03T11:14:04.956Z,10.66
2023-02-03T11:16:34.243Z,10.65
2023-02-03T11:19:03.558Z,10.66
2023-02-03T11:21:38.812Z,10.55
2023-02-03T11:24:22.607Z,10.60
2023-02-03T11:26:55.749Z,10.70
2023-02-03T11:29:29.916Z,10.62
2023-02-03T11:31:58.501Z,10.76
2023-02-03T11:34:31.606Z,10.67
2023-02-03T11:36:58.229Z,10.68
2023-02-03T11:39:29.925Z,10.81
2023-02-03T11:41:56.493Z,10.70
2023-02-03T11:44:30.972Z,10.87
2023-02-03T11:47:11.865Z,10.93
2023-02-03T11:50:14.060Z,10.92
2023-02-03T11:52:48.110Z,10.82
2023-02-03T11:55:32.714Z,10.82
2023-02-03T11:58:14.049Z,10.95
2023-02-03T12:01:05.179Z,10.97
2023-02-03T12:03:52.286Z,11.00
2023-02-03T12:06:18.626Z,11.24
2023-02-03T12:09:23.558Z,10.88
2023-02-03T12:12:29.948Z,11.18
2023-02-03T12:15:11.456Z,11.33
2023-02-03T12:17:47.070Z,11.35
2023-02-03T12:20:32.961Z,11.12
2023-02-03T12:23:34.271Z,11.31
2023-02-03T12:26:25.127Z,11.33
2023-02-03T12:28:58.064Z,11.23
2023-02-03T12:31:32.534Z,11.10
2023-02-03T12:34:09.841Z,11.11
2023-02-03T12:36:41.760Z,11.16
2023-02-03T12:39:14.580Z,11.25
2023-02-03T12:41:46.532Z,11.39
2023-02-03T12:44:43.502Z,11.28
2023-02-03T12:47:41.552Z,11.18
2023-02-03T12:50:22.091Z,11.18
2023-02-03T12:53:00.603Z,11.30
2023-02-03T12:55:41.856Z,11.18
2023-02-03T12:58:21.878Z,11.11
2023-02-03T13:01:05.336Z,11.06
2023-02-03T13:03:35.517Z,11.11
2023-02-03T13:06:11.971Z,11.14
2023-02-03T13:09:14.218Z,11.12
2023-02-03T13:11:52.540Z,11.06
2023-02-03T13:14:31.917Z,11.07
2023-02-03T13:17:15.499Z,11.12
2023-02-03T13:19:55.112Z,11.11
2023-02-03T13:22:23.914Z,11.05
2023-02-03T13:25:17.677Z,11.11
2023-02-03T13:28:10.437Z,11.11
2023-02-03T13:31:05.724Z,11.02
2023-02-03T13:33:38.142Z,11.05
2023-02-03T13:36:26.421Z,11.14
2023-02-03T13:39:30.436Z,10.95
2023-02-03T13:42:17.043Z,10.92
2023-02-03T13:44:46.742Z,11.07
2023-02-03T13:47:21.269Z,11.00
2023-02-03T13:49:53.913Z,10.96
2023-02-03T13:52:25.638Z,10.93
2023-02-03T13:54:52.063Z,10.80
2023-02-03T13:57:22.947Z,10.87
2023-02-03T13:59:49.751Z,10.89
2023-02-03T14:02:19.202Z,10.83
2023-02-03T14:04:45.612Z,10.70
2023-02-03T14:07:37.903Z,10.71
2023-02-03T14:10:13.174Z,10.92
2023-02-03T14:15:21.908Z,10.92
2023-02-03T14:17:48.274Z,10.80
2023-02-03T14:20:32.411Z,10.78
2023-02-03T14:23:06.261Z,10.73
2023-02-03T14:25:43.580Z,10.85
2023-02-03T14:28:15.401Z,10.86
2023-02-03T14:31:00.828Z,10.84
2023-02-03T14:34:14.932Z,10.88
2023-02-03T14:36:45.806Z,10.80
2023-02-03T14:39:18.361Z,10.81
2023-02-03T14:41:55.496Z,10.83
2023-02-03T14:44:30.857Z,10.73
2023-02-03T14:47:28.365Z,10.84
2023-02-03T14:49:54.643Z,10.80
2023-02-03T14:52:33.591Z,10.63
2023-02-03T14:55:09.191Z,10.72
2023-02-03T14:57:41.415Z,10.63
2023-02-03T15:00:28.008Z,10.70
2023-02-03T15:03:06.711Z,10.56
2023-02-03T15:05:33.032Z,10.54
2023-02-03T15:08:01.281Z,10.51
2023-02-03T15:10:40.890Z,10.65
2023-02-03T15:13:26.451Z,10.67
2023-02-03T15:15:55.198Z,10.59
2023-02-03T15:18:36.171Z,10.57
2023-02-03T15:21:03.269Z,10.55
2023-02-03T15:23:38.727Z,10.56
2023-02-03T15:26:19.927Z,10.53
2023-02-03T15:28:58.007Z,10.54
2023-02-03T15:31:49.711Z,10.65
2023-02-03T15:34:39.550Z,10.42
2023-02-03T15:37:28.543Z,10.43
2023-02-03T15:39:57.591Z,10.48
2023-02-03T15:42:39.294Z,10.42
2023-02-03T15:45:37.738Z,10.41
2023-02-03T15:48:19.925Z,10.51
2023-02-03T15:51:02.512Z,10.59
2023-02-03T15:53:47.545Z,10.59
2023-02-03T15:56:41.025Z,10.52
2023-02-03T15:59:21.338Z,10.45
2023-02-03T16:01:48.305Z,10.52
2023-02-03T16:04:15.630Z,10.49
2023-02-03T16:06:47.137Z,10.72
2023-02-03T16:09:31.910Z,10.59
2023-02-03T16:12:11.215Z,10.41
2023-02-03T16:14:37.655Z,10.49
2023-02-03T16:17:06.120Z,10.37
2023-02-03T16:19:37.915Z,10.45
2023-02-03T16:22:04.354Z,10.45
2023-02-03T16:24:46.082Z,10.41
2023-02-03T16:27:31.683Z,10.49
2023-02-03T16:30:25.721Z,10.56
2023-02-03T16:33:32.830Z,10.56
2023-02-03T16:36:29.714Z,10.55
2023-02-03T16:39:16.602Z,10.69
2023-02-03T16:42:01.354Z,10.60
2023-02-03T16:44:46.127Z,10.50
2023-02-03T16:47:46.679Z,10.59
2023-02-03T16:50:42.868Z,10.49
2023-02-03T16:53:14.595Z,10.43
2023-02-03T16:55:42.542Z,10.44
2023-02-03T16:58:11.221Z,10.48
2023-02-03T17:00:41.359Z,10.49
2023-02-03T17:03:09.909Z,10.44
2023-02-03T17:05:37.873Z,10.42
2023-02-03T17:08:05.209Z,10.50
2023-02-03T17:10:34.603Z,10.61
2023-02-03T17:13:01.069Z,10.57
2023-02-03T17:15:27.922Z,10.38
2023-02-03T17:17:54.801Z,10.34
2023-02-03T17:20:21.250Z,10.59
2023-02-03T17:22:47.607Z,10.55
2023-02-03T17:25:13.961Z,10.59
2023-02-03T17:27:40.369Z,10.55
2023-02-03T17:30:07.251Z,10.64
2023-02-03T17:32:33.604Z,10.68
2023-02-03T17:35:00.023Z,10.72
2023-02-03T17:37:26.409Z,10.70
2023-02-03T17:53:33.163Z,10.85
2023-02-03T17:56:05.975Z,10.80
2023-02-03T17:58:32.361Z,10.91
2023-02-03T18:00:58.772Z,10.95
2023-02-03T18:03:25.169Z,10.77
2023-02-03T18:05:52.170Z,10.81
2023-02-03T18:08:20.543Z,10.79
2023-02-03T18:10:50.687Z,10.82
2023-02-03T18:13:17.907Z,10.77
2023-02-03T18:15:44.306Z,10.82
2023-02-03T18:18:10.938Z,10.90
2023-02-03T18:20:37.385Z,10.92
2023-02-03T18:23:03.798Z,10.87
2023-02-03T18:25:30.151Z,10.93
2023-02-03T18:27:56.632Z,10.89
2023-02-03T18:30:23.094Z,10.85
2023-02-03T18:32:52.657Z,10.92
2023-02-03T18:35:19.332Z,11.01
2023-02-03T18:37:45.827Z,10.85
2023-02-03T18:40:12.719Z,10.91
2023-02-03T18:42:39.133Z,10.98
2023-02-03T18:45:06.464Z,11.00
2023-02-03T18:47:33.659Z,10.93
2023-02-03T18:50:00.126Z,10.89
2023-02-03T18:52:26.657Z,10.93
2023-02-03T18:54:53.048Z,10.94
2023-02-03T18:57:19.455Z,10.85
2023-02-03T18:59:46.577Z,10.93
2023-02-03T19:02:13.022Z,11.06
2023-02-03T19:04:39.516Z,11.12
2023-02-03T19:07:06.308Z,11.09
2023-02-03T19:09:33.979Z,11.04
2023-02-03T19:12:00.364Z,10.89
2023-02-03T19:14:28.299Z,10.97
2023-02-03T19:16:54.865Z,10.87
2023-02-03T19:19:21.330Z,10.86
2023-02-03T19:21:48.668Z,10.85
2023-02-03T19:24:16.101Z,10.74
2023-02-03T19:26:42.639Z,10.81
2023-02-03T19:29:09.056Z,10.84
2023-02-03T19:31:35.724Z,10.70
2023-02-03T19:34:02.354Z,10.78
2023-02-03T19:36:29.650Z,10.75
2023-02-03T19:38:56.840Z,10.78
2023-02-03T19:41:25.620Z,10.60
2023-02-03T19:43:52.207Z,10.58
2023-02-03T19:46:21.600Z,10.42
2023-02-03T19:48:48.560Z,10.41
2023-02-03T19:51:15.098Z,10.45
2023-02-03T19:53:41.550Z,10.49
2023-02-03T19:56:07.994Z,10.58
2023-02-03T19:58:34.419Z,10.70
2023-02-03T20:01:00.834Z,10.78
2023-02-03T20:03:27.233Z,10.60
2023-02-03T20:05:54.216Z,10.53
2023-02-03T20:08:20.616Z,10.42
2023-02-03T20:10:47.109Z,10.28
2023-02-03T20:13:14.220Z,10.13
2023-02-03T20:15:41.280Z,10.11
2023-02-03T20:18:07.957Z,9.99
2023-02-03T20:20:35.021Z,9.98
2023-02-03T20:23:01.562Z,9.87
2023-02-03T20:25:27.927Z,10.10
2023-02-03T20:27:56.705Z,10.15
2023-02-03T20:30:23.131Z,10.10
2023-02-03T20:32:49.934Z,10.02
2023-02-03T20:35:16.400Z,10.24
2023-02-03T20:37:43.384Z,10.19
2023-02-03T20:40:19.255Z,10.21
2023-02-03T20:42:45.662Z,10.23
2023-02-03T20:45:20.523Z,10.26
2023-02-03T20:47:47.555Z,9.97
2023-02-03T20:50:26.929Z,9.91
2023-02-03T20:52:57.880Z,9.90
2023-02-03T20:55:24.351Z,9.98
2023-02-03T20:57:51.486Z,10.06
2023-02-03T21:00:24.122Z,10.29
2023-02-03T21:03:09.475Z,10.12
2023-02-03T21:05:39.428Z,9.94
2023-02-03T21:08:18.299Z,9.99
2023-02-03T21:10:46.595Z,10.05
2023-02-03T21:13:30.947Z,10.08
2023-02-03T21:16:04.997Z,10.16
2023-02-03T21:18:34.344Z,10.31
2023-02-03T21:21:01.424Z,10.30
2023-02-03T21:23:36.203Z,10.27
2023-02-03T21:26:15.075Z,10.01
2023-02-03T21:28:41.450Z,10.32
2023-02-03T21:31:19.420Z,10.36
2023-02-03T21:33:45.959Z,10.20
2023-02-03T21:36:17.118Z,10.18
2023-02-03T21:38:44.525Z,10.29
2023-02-03T21:41:16.518Z,10.22
2023-02-03T21:43:44.928Z,10.34
2023-02-03T21:46:27.675Z,10.32
2023-02-03T21:48:59.537Z,10.26
2023-02-03T21:51:36.482Z,10.24
2023-02-03T21:54:12.910Z,10.42
2023-02-03T21:56:41.580Z,10.34
2023-02-03T21:59:16.599Z,10.31
2023-02-03T22:01:43.035Z,10.20
2023-02-03T22:04:09.466Z,10.27
2023-02-03T22:06:48.947Z,10.20
2023-02-03T22:09:20.646Z,10.37
2023-02-03T22:11:47.667Z,10.32
2023-02-03T22:14:16.398Z,10.28
2023-02-03T22:16:43.445Z,10.30
2023-02-03T22:19:10.451Z,10.12
2023-02-03T22:21:36.880Z,10.30
2023-02-03T22:24:03.480Z,10.34
2023-02-03T22:26:29.962Z,10.29
2023-02-03T22:28:56.533Z,10.21
2023-02-03T22:31:23.532Z,10.27
2023-02-03T22:33:50.017Z,10.22
2023-02-03T22:36:16.578Z,10.25
2023-02-03T22:38:43.307Z,10.34
2023-02-03T22:41:14.466Z,10.45
2023-02-03T22:43:41.140Z,10.30
2023-02-03T22:46:07.933Z,10.50
2023-02-03T22:48:34.678Z,10.33
2023-02-03T22:51:01.448Z,10.39
2023-02-03T22:53:28.470Z,10.47
2023-02-03T22:55:57.900Z,10.36
2023-02-03T22:58:24.368Z,10.32
2023-02-03T23:00:50.946Z,10.36
2023-02-03T23:03:17.453Z,10.33
2023-02-03T23:05:43.811Z,10.40
2023-02-03T23:08:10.381Z,10.37
2023-02-03T23:10:36.979Z,10.44
2023-02-03T23:13:03.455Z,10.51
2023-02-03T23:15:30.041Z,10.55
2023-02-03T23:17:56.643Z,10.67
2023-02-03T23:20:23.238Z,10.72
2023-02-03T23:22:49.956Z,10.45
2023-02-03T23:25:16.378Z,10.62
2023-02-03T23:27:42.854Z,10.55
2023-02-03T23:30:10.372Z,10.52
2023-02-03T23:32:36.869Z,10.53
2023-02-03T23:35:42.487Z,10.42
2023-02-03T23:38:08.879Z,10.27
2023-02-03T23:40:35.220Z,10.31
2023-02-03T23:43:01.574Z,10.26
2023-02-03T23:45:27.954Z,10.22
2023-02-03T23:47:54.352Z,10.10
2023-02-03T23:50:20.862Z,10.27
2023-02-03T23:52:47.832Z,10.23
2023-02-03T23:55:17.572Z,10.18
2023-02-03T23:57:44.364Z,10.22
